Time,TemperatureF,DewpointF,PressureIn,WindDirection,WindDirectionDegrees,WindSpeedMPH,WindSpeedGustMPH,Humidity,HourlyPrecipIn,Conditions,Clouds,dailyrainin,SoftwareType,DateUTC
2013-01-25 00:00:00,77.4,73.9,29.51,WSW,248,1.9,5.0,89,0.00,,-RA,0.00,VWS V13.01,2013-01-24 14:00:00,
2013-01-25 00:15:00,76.4,73.2,29.50,WSW,248,1.9,3.8,90,0.00,,-RA,0.00,VWS V13.01,2013-01-24 14:15:00,
2013-01-25 00:30:00,76.1,73.3,29.49,WSW,248,3.1,6.2,91,0.00,,-RA,0.00,VWS V13.01,2013-01-24 14:30:00,
2013-01-25 00:45:00,76.3,73.5,29.48,WSW,248,1.9,5.0,91,0.00,,-RA,0.00,VWS V13.01,2013-01-24 14:45:00,
2013-01-25 01:00:00,76.5,73.3,29.48,NW,315,0.6,3.8,90,0.00,,-RA,0.00,VWS V13.01,2013-01-24 15:00:00,
2013-01-25 01:15:00,76.7,73.2,29.47,West,270,0.6,3.8,89,0.00,,-RA,0.00,VWS V13.01,2013-01-24 15:15:00,
2013-01-25 01:30:00,77.0,73.5,29.48,West,270,1.9,5.0,89,0.00,,-RA,0.00,VWS V13.01,2013-01-24 15:30:00,
2013-01-25 01:45:00,76.9,73.8,29.47,West,270,0.6,0.0,90,0.00,,-RA,0.00,VWS V13.01,2013-01-24 15:45:00,
2013-01-25 02:00:00,76.7,73.6,29.47,WSW,248,1.9,5.0,90,0.00,,-RA,0.00,VWS V13.01,2013-01-24 16:00:00,
2013-01-25 02:15:00,77.0,73.8,29.47,West,270,0.6,2.5,90,0.00,,-RA,0.00,VWS V13.01,2013-01-24 16:15:00,
2013-01-25 02:30:00,76.7,73.9,29.47,WSW,248,0.6,2.5,91,0.00,,-RA,0.00,VWS V13.01,2013-01-24 16:30:00,
2013-01-25 02:45:00,76.5,73.7,29.47,WSW,248,1.9,5.0,91,0.00,,-RA,0.00,VWS V13.01,2013-01-24 16:45:00,
2013-01-25 03:00:00,76.7,73.9,29.48,WSW,248,1.9,5.0,91,0.00,,-RA,0.00,VWS V13.01,2013-01-24 17:00:00,
2013-01-25 03:15:00,76.8,74.0,29.47,WNW,292,0.6,2.5,91,0.00,,-RA,0.00,VWS V13.01,2013-01-24 17:15:00,
2013-01-25 03:30:00,76.6,74.1,29.48,West,270,0.6,1.3,92,0.00,,-RA,0.00,VWS V13.01,2013-01-24 17:30:00,
2013-01-25 03:45:00,76.5,74.3,29.47,West,270,0.6,0.0,93,0.00,,-RA,0.00,VWS V13.01,2013-01-24 17:45:00,
2013-01-25 04:00:00,76.3,74.1,29.48,West,270,0.6,0.0,93,0.00,,-RA,0.00,VWS V13.01,2013-01-24 18:00:00,
2013-01-25 04:15:00,76.2,74.0,29.48,West,270,1.9,5.0,93,0.00,,-RA,0.00,VWS V13.01,2013-01-24 18:15:00,
2013-01-25 04:30:00,76.1,74.2,29.48,NNE,22,0.6,1.3,94,0.00,,-RA,0.00,VWS V13.01,2013-01-24 18:30:00,
2013-01-25 04:45:00,76.0,74.2,29.48,WSW,248,0.6,3.8,94,0.00,,-RA,0.00,VWS V13.01,2013-01-24 18:45:00,
2013-01-25 05:00:00,76.0,74.2,29.48,West,270,0.6,2.5,94,0.00,,-RA,0.00,VWS V13.01,2013-01-24 19:00:00,
2013-01-25 05:15:00,75.9,74.1,29.49,West,270,0.6,0.0,94,0.00,,-RA,0.00,VWS V13.01,2013-01-24 19:15:00,
2013-01-25 05:30:00,75.8,73.9,29.49,West,270,0.6,0.0,94,0.00,,-RA,0.00,VWS V13.01,2013-01-24 19:30:00,
2013-01-25 05:45:00,75.7,74.2,29.50,WSW,248,0.6,1.3,95,0.00,,-RA,0.00,VWS V13.01,2013-01-24 19:45:00,
2013-01-25 06:00:00,76.0,74.5,29.50,NNE,22,0.6,6.2,95,0.00,,-RA,0.00,VWS V13.01,2013-01-24 20:00:00,
2013-01-25 06:15:00,76.3,74.8,29.51,WSW,248,0.6,3.8,95,0.00,,-RA,0.00,VWS V13.01,2013-01-24 20:15:00,
2013-01-25 06:30:00,76.5,75.0,29.51,SW,225,0.6,1.3,95,0.00,,-RA,0.00,VWS V13.01,2013-01-24 20:30:00,
2013-01-25 06:45:00,76.8,75.3,29.52,SW,225,0.6,0.0,95,0.00,,-RA,0.00,VWS V13.01,2013-01-24 20:45:00,
2013-01-25 06:55:00,76.8,75.3,29.52,SW,225,0.6,0.0,95,0.00,,-RA,0.00,VWS V13.01,2013-01-24 20:55:00,
2013-01-25 07:00:00,77.5,76.0,29.53,West,276,0.6,0.0,95,0.00,,-RA,0.00,VWS V13.01,2013-01-24 21:00:00,
2013-01-25 07:05:00,77.6,76.1,29.53,WSW,258,0.6,0.0,95,0.00,,BKN300,0.00,VWS V13.01,2013-01-24 21:05:00,
2013-01-25 07:10:00,77.9,76.4,29.53,West,261,0.6,0.0,95,0.00,,BKN300,0.00,VWS V13.01,2013-01-24 21:10:00,
2013-01-25 07:15:00,78.2,76.7,29.53,West,269,0.6,0.0,95,0.00,,BKN300,0.00,VWS V13.01,2013-01-24 21:15:00,
2013-01-25 07:20:00,78.4,76.8,29.53,West,274,0.6,0.0,95,0.00,,BKN300,0.00,VWS V13.01,2013-01-24 21:20:00,
2013-01-25 07:25:00,78.7,76.8,29.53,WNW,302,0.6,0.0,94,0.00,,BKN300,0.00,VWS V13.01,2013-01-24 21:25:00,
2013-01-25 07:30:00,79.0,77.1,29.54,WNW,302,0.6,0.0,94,0.00,,BKN300,0.00,VWS V13.01,2013-01-24 21:30:00,
2013-01-25 07:35:00,79.4,77.5,29.54,WNW,302,0.6,0.0,94,0.00,,BKN300,0.00,VWS V13.01,2013-01-24 21:35:00,
2013-01-25 07:40:00,79.8,77.6,29.54,West,271,0.6,0.0,93,0.00,,BKN300,0.00,VWS V13.01,2013-01-24 21:40:00,
2013-01-25 07:45:00,80.1,77.9,29.54,West,279,0.6,0.0,93,0.00,,BKN300,0.00,VWS V13.01,2013-01-24 21:45:00,
2013-01-25 07:50:00,80.5,78.0,29.54,NW,319,1.9,0.0,92,0.00,,BKN300,0.00,VWS V13.01,2013-01-24 21:50:00,
2013-01-25 07:55:00,80.8,77.9,29.54,West,265,0.6,0.0,91,0.00,,BKN300,0.00,VWS V13.01,2013-01-24 21:55:00,
2013-01-25 08:00:00,81.5,78.3,29.54,WSW,251,3.1,0.0,90,0.00,,BKN300,0.00,VWS V13.01,2013-01-24 22:00:00,
2013-01-25 08:58:00,81.7,78.5,29.54,WSW,251,0.6,0.0,90,0.00,,BKN300,0.00,VWS V13.01,2013-01-24 22:58:00,
2013-01-25 09:15:00,85.4,79.7,29.54,North,0,1.9,6.2,83,0.00,,BKN300,0.00,VWS V13.01,2013-01-24 23:15:00,
2013-01-25 09:30:00,86.3,78.2,29.54,NNW,338,3.1,8.7,77,0.00,,BKN300,0.00,VWS V13.01,2013-01-24 23:30:00,
2013-01-25 09:45:00,87.6,77.9,29.54,NNW,338,3.1,10.0,73,0.00,,BKN300,0.00,VWS V13.01,2013-01-24 23:45:00,
2013-01-25 10:00:00,89.1,78.5,29.53,NNW,338,3.1,10.0,71,0.00,,BKN300,0.00,VWS V13.01,2013-01-25 00:00:00,
2013-01-25 10:15:00,90.1,79.4,29.53,NNW,338,3.1,10.0,71,0.00,,BKN300,0.00,VWS V13.01,2013-01-25 00:15:00,
2013-01-25 10:30:00,91.7,78.3,29.52,NNW,338,4.4,8.7,65,0.00,,BKN300,0.00,VWS V13.01,2013-01-25 00:30:00,
2013-01-25 10:45:00,93.2,78.2,29.52,NNW,338,5.6,16.3,62,0.00,,BKN300,0.00,VWS V13.01,2013-01-25 00:45:00,
2013-01-25 11:00:00,95.2,77.6,29.51,WNW,292,5.6,17.5,57,0.00,,BKN300,0.00,VWS V13.01,2013-01-25 01:00:00,
2013-01-25 11:15:00,96.4,77.6,29.51,WNW,292,4.4,15.0,55,0.00,,BKN300,0.00,VWS V13.01,2013-01-25 01:15:00,
2013-01-25 11:30:00,95.8,77.6,29.50,West,270,9.4,22.5,56,0.00,,BKN300,0.00,VWS V13.01,2013-01-25 01:30:00,
2013-01-25 11:45:00,96.1,78.4,29.50,WNW,292,6.9,18.7,57,0.00,,BKN300,0.00,VWS V13.01,2013-01-25 01:45:00,
2013-01-25 12:00:00,96.1,76.8,29.49,West,270,8.1,22.5,54,0.00,,BKN300,0.00,VWS V13.01,2013-01-25 02:00:00,
2013-01-25 12:15:00,97.3,76.2,29.49,West,270,6.9,25.0,51,0.00,,BKN300,0.00,VWS V13.01,2013-01-25 02:15:00,
2013-01-25 12:30:00,96.9,75.8,29.48,NNW,338,8.1,21.3,51,0.00,,BKN300,0.00,VWS V13.01,2013-01-25 02:30:00,
2013-01-25 12:45:00,97.7,75.3,29.47,West,270,8.1,25.0,49,0.00,,BKN300,0.00,VWS V13.01,2013-01-25 02:45:00,
2013-01-25 13:00:00,97.6,77.0,29.46,West,270,8.1,30.0,52,0.00,,BKN300,0.00,VWS V13.01,2013-01-25 03:00:00,
2013-01-25 13:15:00,98.1,76.3,29.46,NNW,338,6.9,18.7,50,0.00,,BKN300,0.00,VWS V13.01,2013-01-25 03:15:00,
2013-01-25 13:30:00,97.3,75.0,29.45,WSW,248,5.6,22.5,49,0.00,,BKN300,0.00,VWS V13.01,2013-01-25 03:30:00,
2013-01-25 13:45:00,97.6,74.0,29.45,WNW,292,10.6,25.0,47,0.00,,BKN300,0.00,VWS V13.01,2013-01-25 03:45:00,
2013-01-25 14:00:00,98.5,73.5,29.44,WNW,292,6.9,17.5,45,0.00,,BKN300,0.00,VWS V13.01,2013-01-25 04:00:00,
2013-01-25 14:15:00,97.6,74.6,29.43,WSW,248,8.1,22.5,48,0.00,,BKN300,0.00,VWS V13.01,2013-01-25 04:15:00,
2013-01-25 14:30:00,98.2,74.5,29.42,West,270,4.4,18.7,47,0.00,,BKN300,0.00,VWS V13.01,2013-01-25 04:30:00,
2013-01-25 14:45:00,98.8,75.1,29.41,West,270,4.4,16.3,47,0.00,,BKN300,0.00,VWS V13.01,2013-01-25 04:45:00,
2013-01-25 15:00:00,99.1,79.5,29.41,NNW,338,5.6,18.7,54,0.00,,BKN300,0.00,VWS V13.01,2013-01-25 05:00:00,
2013-01-25 15:15:00,96.2,82.1,29.40,NNW,338,5.6,11.3,64,0.00,,BKN300,0.00,VWS V13.01,2013-01-25 05:15:00,
2013-01-25 15:30:00,94.7,80.6,29.40,NE,45,3.1,8.7,64,0.00,,BKN300,0.00,VWS V13.01,2013-01-25 05:30:00,
2013-01-25 15:45:00,94.2,79.7,29.39,ENE,68,3.1,6.2,63,0.00,,BKN300,0.00,VWS V13.01,2013-01-25 05:45:00,
2013-01-25 16:00:00,93.8,81.2,29.41,ESE,112,3.1,7.5,67,0.00,,BKN300,0.00,VWS V13.01,2013-01-25 06:00:00,
2013-01-25 16:15:00,94.3,70.4,29.41,WSW,248,6.9,21.3,46,0.00,,BKN300,0.00,VWS V13.01,2013-01-25 06:15:00,
2013-01-25 16:30:00,93.3,71.9,29.42,WSW,248,10.6,23.7,50,0.00,,BKN300,0.00,VWS V13.01,2013-01-25 06:30:00,
2013-01-25 16:40:00,88.9,69.6,29.42,SSW,211,4.0,4.0,53,0.00,,,0.00,Wunderground v.1.15,2013-01-25 06:40:00,
2013-01-25 16:45:00,89.4,70.0,29.41,WSW,248,5.6,15.0,53,0.00,,BKN300,0.00,VWS V13.01,2013-01-25 06:45:00,
2013-01-25 17:00:00,88.1,70.4,29.41,WSW,248,5.6,11.3,56,0.00,,BKN300,0.00,VWS V13.01,2013-01-25 07:00:00,
2013-01-25 17:15:00,87.5,69.4,29.43,WSW,248,8.1,20.0,55,0.00,,BKN300,0.00,VWS V13.01,2013-01-25 07:15:00,
2013-01-25 17:30:00,87.3,70.2,29.44,WSW,248,8.1,20.0,57,0.00,,BKN300,0.00,VWS V13.01,2013-01-25 07:30:00,
2013-01-25 17:45:00,87.8,70.2,29.45,West,270,8.1,13.7,56,0.00,,BKN300,0.00,VWS V13.01,2013-01-25 07:45:00,
2013-01-25 18:00:00,87.6,71.0,29.47,West,270,8.1,17.5,58,0.00,,BKN300,0.00,VWS V13.01,2013-01-25 08:00:00,
2013-01-25 18:15:00,87.3,71.2,29.47,West,270,6.9,18.7,59,0.00,,BKN300,0.00,VWS V13.01,2013-01-25 08:15:00,
2013-01-25 18:30:00,86.9,71.8,29.48,West,270,8.1,21.3,61,0.00,,BKN300,0.00,VWS V13.01,2013-01-25 08:30:00,
2013-01-25 18:45:00,86.7,71.7,29.48,WSW,248,13.1,28.8,61,0.00,,BKN300,0.00,VWS V13.01,2013-01-25 08:45:00,
2013-01-25 19:00:00,86.3,71.3,29.49,WSW,248,10.6,26.2,61,0.00,,BKN300,0.00,VWS V13.01,2013-01-25 09:00:00,
2013-01-25 19:15:00,86.0,71.0,29.50,WSW,248,10.6,25.0,61,0.00,,BKN300,0.00,VWS V13.01,2013-01-25 09:15:00,
2013-01-25 19:30:00,85.5,70.5,29.51,WSW,248,8.1,22.5,61,0.00,,BKN300,0.00,VWS V13.01,2013-01-25 09:30:00,
2013-01-25 19:45:00,85.0,70.1,29.52,WSW,248,9.4,23.7,61,0.00,,BKN300,0.00,VWS V13.01,2013-01-25 09:45:00,
2013-01-25 20:00:00,84.5,70.5,29.52,WSW,248,8.1,17.5,63,0.00,,BKN300,0.00,VWS V13.01,2013-01-25 10:00:00,
2013-01-25 20:15:00,84.0,70.5,29.52,WSW,248,6.9,15.0,64,0.00,,BKN300,0.00,VWS V13.01,2013-01-25 10:15:00,
2013-01-25 20:30:00,83.7,70.2,29.53,West,270,8.1,18.7,64,0.00,,BKN300,0.00,VWS V13.01,2013-01-25 10:30:00,
2013-01-25 20:45:00,83.4,70.4,29.54,West,270,5.6,16.3,65,0.00,,BKN300,0.00,VWS V13.01,2013-01-25 10:45:00,
2013-01-25 21:00:00,83.3,70.8,29.53,WNW,292,4.4,10.0,66,0.00,,BKN300,0.00,VWS V13.01,2013-01-25 11:00:00,
2013-01-25 21:15:00,82.9,70.4,29.53,WSW,248,6.9,16.3,66,0.00,,BKN300,0.00,VWS V13.01,2013-01-25 11:15:00,
2013-01-25 21:30:00,82.8,70.3,29.53,WSW,248,9.4,26.2,66,0.00,,BKN300,0.00,VWS V13.01,2013-01-25 11:30:00,
2013-01-25 21:45:00,82.9,70.4,29.53,West,270,8.1,21.3,66,0.00,,BKN300,0.00,VWS V13.01,2013-01-25 11:45:00,
2013-01-25 22:00:00,82.9,70.4,29.55,WSW,248,6.9,17.5,66,0.00,,BKN300,0.00,VWS V13.01,2013-01-25 12:00:00,
2013-01-25 22:15:00,82.8,70.7,29.54,WSW,248,8.1,21.3,67,0.00,,BKN300,0.00,VWS V13.01,2013-01-25 12:15:00,
2013-01-25 22:30:00,82.9,69.9,29.55,WSW,248,9.4,22.5,65,0.00,,BKN300,0.00,VWS V13.01,2013-01-25 12:30:00,
2013-01-25 22:45:00,83.4,69.9,29.54,WSW,248,10.6,21.3,64,0.00,,BKN300,0.00,VWS V13.01,2013-01-25 12:45:00,
2013-01-25 23:00:00,83.4,69.9,29.54,WSW,248,10.6,22.5,64,0.00,,BKN300,0.00,VWS V13.01,2013-01-25 13:00:00,
2013-01-25 23:15:00,83.4,69.9,29.53,WSW,248,13.1,27.5,64,0.00,,BKN300,0.00,VWS V13.01,2013-01-25 13:15:00,
2013-01-25 23:30:00,83.3,69.9,29.53,WSW,248,14.4,30.0,64,0.00,,BKN300,0.00,VWS V13.01,2013-01-25 13:30:00,
2013-01-25 23:45:00,83.0,70.0,29.53,WSW,248,10.6,22.5,65,0.00,,BKN300,0.00,VWS V13.01,2013-01-25 13:45:00,